Time;durP1;ratioP1;P1;durP2;ratioP2;P2;SDS_P1;SDS_P2;PMS_P1;PMS_P2;Temp;Humidity;BMP_temperature;BMP_pressure;BME280_temperature;BME280_humidity;BME280_pressure;Samples;Min_cycle;Max_cycle;Signal;HPM_P1;HPM_P2
2023/12/03 00:00:08;;;;;;;0.95;0.88;;;1.80;97.60;;;;;;4980179;28;20023;-76
2023/12/03 00:02:35;;;;;;;1.77;1.30;;;1.40;93.60;;;;;;4961434;28;20561;-79
2023/12/03 00:05:02;;;;;;;1.77;1.10;;;1.40;93.70;;;;;;4962224;28;20034;-75
2023/12/03 00:07:28;;;;;;;1.40;1.15;;;1.40;94.30;;;;;;4961998;28;20026;-79
2023/12/03 00:09:55;;;;;;;1.95;1.42;;;1.50;94.50;;;;;;4961287;28;20027;-78
2023/12/03 00:12:21;;;;;;;2.15;1.15;;;1.40;94.20;;;;;;4962173;28;20027;-78
2023/12/03 00:14:47;;;;;;;1.50;1.00;;;1.40;94.40;;;;;;4979267;28;20029;-79
2023/12/03 00:17:12;;;;;;;1.92;1.40;;;1.30;95.30;;;;;;4978973;28;20480;-78
2023/12/03 00:19:40;;;;;;;1.25;1.15;;;1.30;96.10;;;;;;4961843;28;20038;-79
2023/12/03 00:22:05;;;;;;;5.60;1.45;;;1.40;96.60;;;;;;4979023;28;20023;-78
2023/12/03 00:24:31;;;;;;;1.85;1.15;;;1.30;95.10;;;;;;4961906;28;20114;-77
2023/12/03 00:26:58;;;;;;;2.00;1.20;;;1.40;95.90;;;;;;4961832;28;20038;-77
2023/12/03 00:29:23;;;;;;;0.95;0.80;;;1.20;97.20;;;;;;4979438;28;20113;-77
2023/12/03 00:31:49;;;;;;;1.20;0.98;;;1.20;97.00;;;;;;4961710;28;20062;-77
2023/12/03 00:34:15;;;;;;;2.30;1.10;;;1.10;96.20;;;;;;4979190;28;20473;-77
2023/12/03 00:36:40;;;;;;;1.20;1.08;;;1.10;96.60;;;;;;4960851;28;20094;-78
2023/12/03 00:39:06;;;;;;;1.90;1.30;;;1.00;96.70;;;;;;4961771;28;20023;-78
2023/12/03 00:41:32;;;;;;;1.83;1.00;;;1.10;96.90;;;;;;4978980;28;20075;-77
2023/12/03 00:43:57;;;;;;;2.33;1.40;;;1.00;96.50;;;;;;4978718;28;20038;-77
2023/12/03 00:46:23;;;;;;;0.93;0.93;;;1.00;96.10;;;;;;4979596;28;20077;-77
2023/12/03 00:48:49;;;;;;;1.15;1.02;;;1.00;95.80;;;;;;4961824;28;20019;-78
2023/12/03 00:51:15;;;;;;;3.72;0.80;;;1.70;95.90;;;;;;4961421;28;20030;-79
2023/12/03 00:53:44;;;;;;;1.63;0.95;;;1.00;96.30;;;;;;4961600;28;20033;-78
2023/12/03 00:56:10;;;;;;;2.13;1.50;;;1.00;95.20;;;;;;4961593;28;20515;-76
2023/12/03 00:58:36;;;;;;;1.48;1.02;;;1.00;95.60;;;;;;4978405;28;20070;-77
2023/12/03 01:01:02;;;;;;;1.52;1.02;;;1.00;95.30;;;;;;4961336;28;20031;-76
2023/12/03 01:03:28;;;;;;;2.40;1.20;;;1.00;94.70;;;;;;4978379;28;20027;-75
2023/12/03 01:05:53;;;;;;;3.00;1.65;;;1.00;94.70;;;;;;4978865;28;20101;-76
2023/12/03 01:08:19;;;;;;;1.15;1.00;;;1.00;94.50;;;;;;4961573;28;20066;-79
2023/12/03 01:10:45;;;;;;;1.25;0.93;;;1.30;94.70;;;;;;4961061;28;20109;-78
2023/12/03 01:13:11;;;;;;;1.75;1.20;;;1.00;94.50;;;;;;4961125;28;20031;-78
2023/12/03 01:15:36;;;;;;;1.05;0.90;;;1.00;94.10;;;;;;4964448;28;20042;-79
2023/12/03 01:18:02;;;;;;;1.65;0.95;;;1.00;94.20;;;;;;4965431;28;20022;-78
2023/12/03 01:20:27;;;;;;;1.10;0.85;;;1.00;93.50;;;;;;4982748;28;20037;-77
2023/12/03 01:22:54;;;;;;;1.42;1.33;;;1.00;92.90;;;;;;4965777;28;20022;-78
2023/12/03 01:25:20;;;;;;;1.40;1.30;;;1.00;92.40;;;;;;4965829;28;20033;-79
2023/12/03 01:27:46;;;;;;;0.80;0.75;;;1.00;92.80;;;;;;4983000;28;20102;-78
2023/12/03 01:30:12;;;;;;;0.77;0.50;;;1.00;91.60;;;;;;4982268;28;20046;-78
2023/12/03 01:32:37;;;;;;;1.17;1.08;;;1.00;91.50;;;;;;4964947;28;20035;-78
2023/12/03 01:35:03;;;;;;;2.63;1.08;;;0.90;91.70;;;;;;4965319;28;20393;-77
2023/12/03 01:37:29;;;;;;;1.00;0.88;;;1.00;93.50;;;;;;4965359;28;20050;-78
2023/12/03 01:39:54;;;;;;;1.52;0.73;;;0.90;94.00;;;;;;4965392;28;20082;-78
2023/12/03 01:42:20;;;;;;;1.35;1.25;;;0.90;94.30;;;;;;4964857;28;20038;-77
2023/12/03 01:44:46;;;;;;;1.67;0.90;;;0.80;94.40;;;;;;4982157;28;20019;-78
2023/12/03 01:47:14;;;;;;;1.45;1.05;;;0.80;95.10;;;;;;4964512;28;20054;-77
2023/12/03 01:49:40;;;;;;;1.17;1.17;;;0.80;95.20;;;;;;4981842;28;20404;-78
2023/12/03 01:52:06;;;;;;;0.90;0.90;;;0.90;94.30;;;;;;4964261;28;20025;-78
2023/12/03 01:54:38;;;;;;;2.10;1.27;;;0.70;94.50;;;;;;4964211;28;20026;-79
2023/12/03 01:57:04;;;;;;;1.65;0.32;;;0.80;95.60;;;;;;4981858;28;20095;-79
2023/12/03 01:59:31;;;;;;;1.85;1.00;;;0.70;95.70;;;;;;4981769;28;20458;-77
2023/12/03 02:01:57;;;;;;;1.38;0.90;;;0.70;94.60;;;;;;4964787;28;20103;-77
2023/12/03 02:04:22;;;;;;;0.95;0.82;;;0.70;94.50;;;;;;4982256;28;20078;-78
2023/12/03 02:06:48;;;;;;;2.05;0.68;;;0.70;94.10;;;;;;4964051;28;20636;-78
2023/12/03 02:09:16;;;;;;;1.13;0.93;;;0.60;94.10;;;;;;4964973;28;20026;-77
2023/12/03 02:11:42;;;;;;;1.10;1.00;;;0.70;93.60;;;;;;4963533;28;20074;-77
2023/12/03 02:14:09;;;;;;;1.02;1.00;;;0.60;93.80;;;;;;4981759;28;20058;-78
2023/12/03 02:16:35;;;;;;;1.73;1.30;;;0.60;93.30;;;;;;4964051;28;20489;-75
2023/12/03 02:19:02;;;;;;;0.95;0.77;;;0.60;93.40;;;;;;4981477;28;20109;-77
2023/12/03 02:21:28;;;;;;;1.70;1.35;;;0.50;93.00;;;;;;4964044;28;20058;-75
2023/12/03 02:23:53;;;;;;;1.08;0.70;;;0.50;93.60;;;;;;4980886;28;20033;-76
2023/12/03 02:26:19;;;;;;;1.48;0.80;;;0.50;93.30;;;;;;4979811;28;20019;-78
2023/12/03 02:28:45;;;;;;;0.70;0.70;;;0.50;93.90;;;;;;4964332;28;20050;-77
2023/12/03 02:31:10;;;;;;;0.70;0.70;;;0.50;92.50;;;;;;4964071;28;20481;-78
2023/12/03 02:33:37;;;;;;;1.13;1.05;;;0.40;92.50;;;;;;4982086;28;20042;-77
2023/12/03 02:36:02;;;;;;;2.13;0.93;;;0.40;92.60;;;;;;4963534;28;20027;-78
2023/12/03 02:38:28;;;;;;;0.80;0.80;;;0.50;93.00;;;;;;4963913;28;20035;-78
2023/12/03 02:40:56;;;;;;;0.70;0.70;;;0.50;93.60;;;;;;4963596;28;20030;-78
2023/12/03 02:43:22;;;;;;;1.45;1.27;;;0.40;93.60;;;;;;4964457;28;20023;-78
2023/12/03 02:45:47;;;;;;;0.73;0.73;;;0.40;94.00;;;;;;4963231;28;20034;-78
2023/12/03 02:48:13;;;;;;;1.38;1.10;;;0.40;94.70;;;;;;4980974;28;20397;-74
2023/12/03 02:50:39;;;;;;;1.83;0.90;;;0.30;92.70;;;;;;4963830;28;20022;-78
2023/12/03 02:53:04;;;;;;;1.77;0.60;;;0.30;93.50;;;;;;4963943;28;20027;-78
2023/12/03 02:55:30;;;;;;;0.95;0.65;;;0.30;94.00;;;;;;4981577;28;20030;-77
2023/12/03 02:57:55;;;;;;;2.15;0.82;;;0.30;92.70;;;;;;4980631;28;20097;-78
2023/12/03 03:00:21;;;;;;;2.25;1.25;;;0.20;93.40;;;;;;4963566;28;20031;-77
2023/12/03 03:02:47;;;;;;;0.98;0.73;;;0.30;93.50;;;;;;4980325;28;20026;-80
2023/12/03 03:05:12;;;;;;;0.90;0.80;;;0.20;93.70;;;;;;4980483;28;20034;-78
2023/12/03 03:07:38;;;;;;;0.93;0.80;;;0.10;94.70;;;;;;4963751;28;20022;-78
2023/12/03 03:10:04;;;;;;;1.13;0.77;;;0.20;93.90;;;;;;4962628;28;20038;-78
2023/12/03 03:12:29;;;;;;;0.95;0.90;;;0.20;93.30;;;;;;4980418;28;20078;-76
2023/12/03 03:14:55;;;;;;;1.27;1.08;;;0.10;92.90;;;;;;4963151;28;20027;-78
2023/12/03 03:17:20;;;;;;;0.93;0.90;;;0.00;91.60;;;;;;4980185;28;20481;-77
2023/12/03 03:19:46;;;;;;;1.60;0.80;;;0.00;91.70;;;;;;4963741;28;20033;-77
2023/12/03 03:22:12;;;;;;;1.10;0.85;;;-0.10;91.20;;;;;;4962874;28;20145;-76
2023/12/03 03:24:38;;;;;;;0.95;0.70;;;-0.10;91.10;;;;;;4963202;28;20073;-78
2023/12/03 03:27:04;;;;;;;0.82;0.82;;;-0.20;92.00;;;;;;4979760;28;20026;-77
2023/12/03 03:29:30;;;;;;;1.30;0.95;;;-0.20;91.30;;;;;;4962508;28;20026;-78
2023/12/03 03:31:55;;;;;;;0.88;0.88;;;-0.20;91.50;;;;;;4979995;28;20023;-77
2023/12/03 03:34:21;;;;;;;2.15;1.65;;;-0.20;92.40;;;;;;4980536;28;20026;-78
2023/12/03 03:36:47;;;;;;;1.70;1.50;;;-0.20;91.30;;;;;;4962629;28;20067;-77
2023/12/03 03:39:12;;;;;;;1.73;1.13;;;-0.20;91.30;;;;;;4962737;28;20026;-76
2023/12/03 03:41:38;;;;;;;2.85;1.27;;;-0.20;91.80;;;;;;4962762;28;20019;-77
2023/12/03 03:44:03;;;;;;;3.88;1.63;;;-0.20;92.20;;;;;;4962823;28;20035;-79
2023/12/03 03:46:29;;;;;;;2.25;1.50;;;-0.30;92.90;;;;;;4963111;28;20023;-78
2023/12/03 03:48:55;;;;;;;1.60;1.17;;;-0.30;92.60;;;;;;4980465;28;20473;-77
2023/12/03 03:51:20;;;;;;;1.58;1.08;;;-0.30;91.70;;;;;;4980403;28;20022;-77
2023/12/03 03:53:46;;;;;;;1.70;0.90;;;-0.30;91.90;;;;;;4980292;28;20176;-78
2023/12/03 03:56:12;;;;;;;2.58;1.23;;;-0.80;92.00;;;;;;4962880;28;20055;-78
2023/12/03 03:58:38;;;;;;;1.13;0.80;;;-0.40;92.30;;;;;;4962611;28;20046;-77
2023/12/03 04:01:05;;;;;;;1.30;0.90;;;-0.40;92.00;;;;;;4980495;28;20166;-79
2023/12/03 04:03:31;;;;;;;1.35;1.25;;;-0.40;91.90;;;;;;4962391;28;20031;-79
2023/12/03 04:05:59;;;;;;;1.27;1.08;;;-0.40;92.10;;;;;;4961804;28;20031;-76
2023/12/03 04:08:24;;;;;;;4.15;0.77;;;-0.50;93.20;;;;;;4961958;28;20477;-77
2023/12/03 04:10:50;;;;;;;1.10;0.88;;;-0.40;93.20;;;;;;4962243;28;20046;-79
2023/12/03 04:13:15;;;;;;;1.75;0.90;;;-0.50;93.50;;;;;;4979466;28;20035;-76
2023/12/03 04:15:41;;;;;;;1.15;0.90;;;-0.50;93.80;;;;;;4961874;28;20033;-78
2023/12/03 04:18:07;;;;;;;1.42;0.98;;;-0.50;93.70;;;;;;4979525;28;20034;-78
2023/12/03 04:20:33;;;;;;;0.60;0.60;;;-0.60;94.00;;;;;;4978997;28;20031;-77
2023/12/03 04:22:58;;;;;;;1.27;1.00;;;-0.60;94.50;;;;;;4979870;28;20030;-76
2023/12/03 04:25:24;;;;;;;1.40;1.02;;;-0.60;95.40;;;;;;4962069;28;20030;-78
2023/12/03 04:27:49;;;;;;;0.90;0.90;;;-0.70;95.10;;;;;;4962430;28;20031;-77
2023/12/03 04:30:15;;;;;;;2.40;1.05;;;-0.70;95.20;;;;;;4979877;28;20023;-77
2023/12/03 04:32:41;;;;;;;0.85;0.85;;;-0.70;95.60;;;;;;4961776;28;20023;-78
2023/12/03 04:35:08;;;;;;;1.55;0.82;;;-0.80;94.60;;;;;;4961676;28;20121;-76
2023/12/03 04:37:34;;;;;;;1.38;0.93;;;-0.80;94.70;;;;;;4979060;28;20057;-78
2023/12/03 04:39:59;;;;;;;1.65;1.13;;;-0.80;94.80;;;;;;4962036;28;20405;-77
2023/12/03 04:42:25;;;;;;;2.78;1.60;;;-0.80;94.90;;;;;;4979952;28;20027;-76
2023/12/03 04:44:51;;;;;;;2.50;1.55;;;-0.90;94.60;;;;;;4961724;28;20027;-78
2023/12/03 04:47:16;;;;;;;2.72;1.10;;;-0.80;94.60;;;;;;4962000;28;20050;-79
2023/12/03 04:49:42;;;;;;;2.33;1.40;;;-0.90;94.70;;;;;;4982463;28;20053;-79
2023/12/03 04:52:07;;;;;;;0.80;0.80;;;-1.00;94.80;;;;;;4968160;28;20034;-76
2023/12/03 04:54:33;;;;;;;1.38;1.02;;;-1.00;95.50;;;;;;4968192;28;20050;-77
2023/12/03 04:56:59;;;;;;;1.25;1.15;;;-1.00;96.10;;;;;;4968566;28;20518;-78
2023/12/03 04:59:24;;;;;;;1.80;1.35;;;-1.10;96.40;;;;;;4967975;28;20034;-79
2023/12/03 05:01:50;;;;;;;1.20;1.10;;;-1.10;97.00;;;;;;4968606;28;20029;-76
2023/12/03 05:04:16;;;;;;;1.70;0.93;;;-1.10;97.10;;;;;;4968364;28;20022;-76
2023/12/03 05:06:41;;;;;;;1.52;1.10;;;-1.20;97.20;;;;;;4968346;28;20038;-78
2023/12/03 05:09:10;;;;;;;4.85;1.30;;;-1.30;97.20;;;;;;4986361;28;20111;-74
2023/12/03 05:11:40;;;;;;;0.85;0.85;;;-1.50;97.70;;;;;;5014829;23;20504;-76
2023/12/03 05:14:06;;;;;;;1.77;1.25;;;-1.30;97.80;;;;;;5000977;28;20032;-77
2023/12/03 05:16:31;;;;;;;3.70;1.92;;;-1.40;98.00;;;;;;5018263;28;20100;-76
2023/12/03 05:18:57;;;;;;;3.47;1.92;;;-1.50;97.40;;;;;;5001032;28;20022;-76
2023/12/03 05:21:22;;;;;;;1.80;0.93;;;-1.50;96.90;;;;;;4991443;28;20022;-77
2023/12/03 05:23:48;;;;;;;4.45;1.70;;;-1.50;97.60;;;;;;4999696;28;20408;-77
2023/12/03 05:26:14;;;;;;;2.42;1.25;;;-1.60;98.00;;;;;;4999353;28;20023;-77
2023/12/03 05:28:39;;;;;;;1.95;0.80;;;-1.60;98.60;;;;;;4999325;28;20022;-76
2023/12/03 05:31:05;;;;;;;1.15;0.93;;;-1.70;99.80;;;;;;4998926;28;20148;-77
2023/12/03 05:33:31;;;;;;;1.50;0.98;;;-1.80;99.90;;;;;;4998705;28;20069;-77
2023/12/03 05:35:56;;;;;;;2.65;1.50;;;-1.90;99.90;;;;;;4980934;28;20112;-77
2023/12/03 05:38:22;;;;;;;3.45;1.50;;;-2.00;99.90;;;;;;4981372;28;20026;-77
2023/12/03 05:40:47;;;;;;;2.88;1.08;;;-2.00;99.90;;;;;;4981143;28;20030;-77
2023/12/03 05:43:14;;;;;;;1.20;1.10;;;-2.10;99.90;;;;;;4998678;28;20065;-77
2023/12/03 05:45:40;;;;;;;1.67;1.00;;;-2.10;99.90;;;;;;4998484;28;20488;-77
2023/12/03 05:48:06;;;;;;;1.45;1.27;;;-2.20;99.90;;;;;;4998595;28;20049;-76
2023/12/03 05:50:32;;;;;;;0.82;0.80;;;-2.30;99.90;;;;;;4998653;28;20018;-77
2023/12/03 05:52:58;;;;;;;1.83;1.10;;;-2.50;99.90;;;;;;4981291;28;20027;-77
2023/12/03 05:55:24;;;;;;;2.22;1.20;;;-2.50;99.90;;;;;;4998462;28;20096;-77
2023/12/03 05:57:49;;;;;;;1.40;1.13;;;-2.60;99.90;;;;;;4998311;28;20080;-77
2023/12/03 06:00:15;;;;;;;1.15;1.02;;;-2.60;99.90;;;;;;4980444;28;20028;-77
2023/12/03 06:02:41;;;;;;;2.40;1.25;;;-2.50;99.90;;;;;;4994426;28;20396;-76
2023/12/03 06:05:07;;;;;;;2.03;1.17;;;-2.50;99.90;;;;;;4995423;28;20026;-77
2023/12/03 06:07:32;;;;;;;2.35;1.73;;;-2.60;99.90;;;;;;4977680;28;20019;-77
2023/12/03 06:09:58;;;;;;;2.08;1.45;;;-2.60;99.90;;;;;;4995079;28;20401;-76
2023/12/03 06:12:24;;;;;;;2.22;1.20;;;-2.60;99.90;;;;;;4977946;28;20030;-76
2023/12/03 06:14:49;;;;;;;1.60;1.50;;;-2.70;99.90;;;;;;4995309;28;20110;-76
2023/12/03 06:17:15;;;;;;;1.27;1.23;;;-2.70;99.90;;;;;;4977376;28;20026;-77
2023/12/03 06:19:40;;;;;;;3.80;1.17;;;-2.80;99.90;;;;;;4995219;28;20081;-77
2023/12/03 06:22:06;;;;;;;1.33;1.10;;;-2.80;99.90;;;;;;4994999;28;20472;-77
2023/12/03 06:24:31;;;;;;;1.05;0.95;;;-2.90;99.90;;;;;;4994950;28;20026;-77
2023/12/03 06:26:57;;;;;;;2.05;0.80;;;-1.80;99.90;;;;;;4977130;28;20019;-76
2023/12/03 06:29:22;;;;;;;1.90;1.13;;;-0.80;99.90;;;;;;4995648;28;20507;-76
2023/12/03 06:31:48;;;;;;;3.15;1.58;;;-1.50;99.90;;;;;;4994708;28;20029;-75
2023/12/03 06:34:15;;;;;;;1.05;0.95;;;-2.00;99.90;;;;;;4976626;28;20508;-76
2023/12/03 06:36:41;;;;;;;1.13;1.02;;;-2.30;99.90;;;;;;4994521;28;20037;-76
2023/12/03 06:39:07;;;;;;;1.52;1.05;;;-2.60;99.90;;;;;;4994791;28;20022;-76
2023/12/03 06:41:33;;;;;;;1.90;1.05;;;-2.80;99.90;;;;;;4994743;28;20022;-77
2023/12/03 06:43:58;;;;;;;1.05;0.98;;;-2.90;99.90;;;;;;5002058;28;20026;-78
2023/12/03 06:46:24;;;;;;;2.25;1.58;;;-2.90;99.90;;;;;;5011904;28;20113;-76
2023/12/03 06:48:50;;;;;;;1.67;1.58;;;-2.90;99.90;;;;;;5012353;28;20007;-78
2023/12/03 06:51:15;;;;;;;6.22;3.10;;;-3.00;99.90;;;;;;4987286;28;20037;-76
2023/12/03 06:53:41;;;;;;;10.60;4.40;;;-3.00;99.90;;;;;;4977328;28;20133;-76
2023/12/03 06:56:10;;;;;;;3.88;1.75;;;-3.00;99.90;;;;;;4994446;28;20031;-76
2023/12/03 06:58:36;;;;;;;4.63;1.70;;;-2.90;99.90;;;;;;4994356;28;20019;-76
2023/12/03 07:01:03;;;;;;;2.97;1.27;;;-2.90;99.90;;;;;;4994283;28;20439;-76
2023/12/03 07:03:28;;;;;;;1.67;1.58;;;-2.90;99.90;;;;;;4994400;28;20033;-76
2023/12/03 07:05:59;;;;;;;1.20;1.10;;;-2.80;99.90;;;;;;4976725;28;20022;-76
2023/12/03 07:08:25;;;;;;;3.25;1.98;;;-2.80;99.90;;;;;;4976825;28;20427;-76
2023/12/03 07:10:50;;;;;;;4.63;2.28;;;-2.80;99.90;;;;;;4976800;28;20033;-76
2023/12/03 07:13:16;;;;;;;2.05;1.45;;;-2.80;99.90;;;;;;4976461;28;20502;-76
2023/12/03 07:15:42;;;;;;;2.30;1.65;;;-2.50;99.90;;;;;;4976410;28;20022;-76
2023/12/03 07:18:07;;;;;;;5.15;2.72;;;-2.60;99.90;;;;;;4976539;28;20057;-77
2023/12/03 07:20:33;;;;;;;5.43;2.95;;;-2.50;99.90;;;;;;4970829;28;20492;-76
2023/12/03 07:22:58;;;;;;;5.45;3.10;;;-2.50;99.90;;;;;;4979619;28;20030;-77
2023/12/03 07:25:24;;;;;;;6.53;3.38;;;-2.50;99.90;;;;;;4957280;28;20042;-76
2023/12/03 07:27:50;;;;;;;10.48;5.25;;;-2.40;99.90;;;;;;4974416;28;20022;-76
2023/12/03 07:30:15;;;;;;;5.72;2.63;;;-2.40;99.90;;;;;;4957151;28;20027;-77
2023/12/03 07:32:41;;;;;;;3.65;2.75;;;-2.20;99.90;;;;;;4974427;28;20038;-76
2023/12/03 07:35:07;;;;;;;2.58;1.92;;;-2.20;99.90;;;;;;4974343;28;20058;-76
2023/12/03 07:37:33;;;;;;;2.45;1.23;;;-2.20;99.90;;;;;;4956698;28;20034;-76
2023/12/03 07:39:58;;;;;;;11.93;3.72;;;-2.20;99.90;;;;;;4974227;28;20544;-76
2023/12/03 07:42:26;;;;;;;4.53;2.65;;;-2.20;99.90;;;;;;4974210;28;20085;-76
2023/12/03 07:44:51;;;;;;;7.35;4.60;;;-2.20;99.90;;;;;;4974086;28;20019;-76
2023/12/03 07:47:17;;;;;;;8.38;5.35;;;-2.10;99.90;;;;;;4973915;28;20038;-76
2023/12/03 07:49:43;;;;;;;6.50;4.72;;;-2.00;99.90;;;;;;4974102;28;20533;-76
2023/12/03 07:52:09;;;;;;;11.23;6.63;;;-2.00;99.90;;;;;;4973983;28;20389;-76
2023/12/03 07:54:35;;;;;;;10.38;7.50;;;-1.90;99.90;;;;;;4956683;28;20032;-77
2023/12/03 07:57:00;;;;;;;10.43;6.32;;;-1.80;99.90;;;;;;4956356;28;20030;-77
2023/12/03 07:59:26;;;;;;;2.80;2.47;;;-1.70;99.90;;;;;;4973777;28;20023;-76
2023/12/03 08:01:52;;;;;;;3.85;3.03;;;-1.50;99.90;;;;;;4956484;28;20023;-76
2023/12/03 08:04:18;;;;;;;2.83;2.45;;;-1.40;99.90;;;;;;4956432;28;20044;-75
2023/12/03 08:06:43;;;;;;;2.35;2.00;;;-1.20;99.90;;;;;;4973463;28;20043;-76
2023/12/03 08:09:11;;;;;;;2.33;1.55;;;-1.00;99.90;;;;;;4973888;28;20030;-76
2023/12/03 08:11:37;;;;;;;5.82;2.10;;;-0.90;98.40;;;;;;4956218;28;20035;-76
2023/12/03 08:14:03;;;;;;;4.55;2.22;;;-0.80;97.90;;;;;;4956330;28;20524;-76
2023/12/03 08:16:28;;;;;;;2.92;2.00;;;-0.60;96.20;;;;;;4973412;28;20038;-76
2023/12/03 08:18:54;;;;;;;3.22;1.90;;;-0.60;95.60;;;;;;4973701;28;20027;-76
2023/12/03 08:21:20;;;;;;;2.60;1.70;;;-0.50;95.50;;;;;;4973469;28;20030;-76
2023/12/03 08:23:46;;;;;;;3.70;2.60;;;-0.40;94.40;;;;;;4972933;28;20366;-76
2023/12/03 08:26:11;;;;;;;2.78;2.10;;;-0.30;95.00;;;;;;4972759;28;20035;-77
2023/12/03 08:28:37;;;;;;;13.32;6.60;;;-0.20;95.80;;;;;;4956348;28;20499;-76
2023/12/03 08:31:03;;;;;;;9.80;5.47;;;-0.30;97.10;;;;;;4973419;28;20555;-76
2023/12/03 08:33:29;;;;;;;8.18;5.05;;;-0.30;98.10;;;;;;4973548;28;20026;-77
2023/12/03 08:35:57;;;;;;;13.35;7.22;;;-0.30;99.20;;;;;;4955918;28;20031;-76
2023/12/03 08:38:22;;;;;;;22.75;11.43;;;-0.30;99.80;;;;;;4973316;28;20035;-76
2023/12/03 08:40:48;;;;;;;14.32;7.57;;;-0.30;99.30;;;;;;4979723;28;20022;-75
2023/12/03 08:43:15;;;;;;;12.60;4.68;;;-0.20;99.10;;;;;;4965277;28;20026;-76
2023/12/03 08:45:41;;;;;;;9.57;4.28;;;-0.10;97.50;;;;;;4981297;28;20106;-76
2023/12/03 08:48:06;;;;;;;16.65;10.18;;;-0.10;97.10;;;;;;4981597;28;20393;-76
2023/12/03 08:50:32;;;;;;;12.35;7.80;;;0.00;96.90;;;;;;4977232;28;20015;-75
2023/12/03 08:52:58;;;;;;;5.15;3.28;;;0.10;96.60;;;;;;4981925;28;20055;-76
2023/12/03 08:55:24;;;;;;;3.25;2.20;;;0.20;94.90;;;;;;4987778;28;20030;-76
2023/12/03 08:57:50;;;;;;;6.03;3.70;;;0.30;94.10;;;;;;4956386;28;20026;-75
2023/12/03 09:00:16;;;;;;;6.43;4.45;;;0.30;93.60;;;;;;4956128;28;20133;-74
2023/12/03 09:02:46;;;;;;;6.03;4.03;;;0.30;94.10;;;;;;4955791;28;20027;-75
2023/12/03 09:05:12;;;;;;;2.90;2.50;;;0.40;93.70;;;;;;4973070;28;20065;-75
2023/12/03 09:07:38;;;;;;;2.88;1.98;;;0.50;93.10;;;;;;4955586;28;20397;-75
2023/12/03 09:10:05;;;;;;;2.42;1.50;;;0.40;93.20;;;;;;4972870;28;20023;-75
2023/12/03 09:12:30;;;;;;;3.72;2.78;;;0.60;91.90;;;;;;4955666;28;20026;-75
2023/12/03 09:14:56;;;;;;;4.68;2.97;;;0.70;91.80;;;;;;4955816;28;20030;-75
2023/12/03 09:17:22;;;;;;;4.00;2.72;;;0.70;92.00;;;;;;4955340;28;20035;-75
2023/12/03 09:19:47;;;;;;;5.63;3.55;;;0.70;91.30;;;;;;4972859;28;20723;-75
2023/12/03 09:22:13;;;;;;;3.50;2.70;;;0.60;91.40;;;;;;4955438;28;20508;-75
2023/12/03 09:24:39;;;;;;;4.68;2.95;;;0.60;91.70;;;;;;4972852;28;20042;-75
2023/12/03 09:27:05;;;;;;;3.63;1.88;;;0.70;92.20;;;;;;4955193;28;20646;-76
2023/12/03 09:29:30;;;;;;;2.25;1.75;;;0.80;92.50;;;;;;4955444;28;20452;-75
2023/12/03 09:31:56;;;;;;;9.48;6.05;;;0.80;91.60;;;;;;4972778;28;20030;-75
2023/12/03 09:34:21;;;;;;;11.07;7.43;;;0.80;91.40;;;;;;4972669;28;20031;-75
2023/12/03 09:36:47;;;;;;;4.22;3.83;;;0.70;90.90;;;;;;4958269;28;20097;-75
2023/12/03 09:39:13;;;;;;;8.30;6.40;;;0.80;90.60;;;;;;4976470;28;20035;-75
2023/12/03 09:41:46;;;;;;;2.42;2.13;;;0.80;89.00;;;;;;4958898;28;20023;-75
2023/12/03 09:44:26;;;;;;;1.70;1.60;;;0.90;88.20;;;;;;4958973;28;20038;-75
2023/12/03 09:46:54;;;;;;;2.53;1.55;;;1.10;84.40;;;;;;4958784;28;20031;-75
2023/12/03 09:49:25;;;;;;;15.90;7.60;;;1.30;81.00;;;;;;4976248;28;20054;-75
2023/12/03 09:51:51;;;;;;;20.20;10.40;;;1.40;78.60;;;;;;4976276;28;20050;-75
2023/12/03 09:54:18;;;;;;;4.93;3.75;;;1.50;78.30;;;;;;4958907;28;20066;-75
2023/12/03 09:56:45;;;;;;;43.60;21.30;;;1.40;76.20;;;;;;4958384;28;20485;-75
2023/12/03 09:59:13;;;;;;;48.53;20.13;;;1.40;75.00;;;;;;4958334;28;20085;-75
2023/12/03 10:01:39;;;;;;;22.58;16.05;;;1.40;76.10;;;;;;4958632;28;20504;-75
2023/12/03 10:04:05;;;;;;;8.20;5.72;;;1.50;79.10;;;;;;4975914;28;20062;-75
2023/12/03 10:06:34;;;;;;;6.18;2.30;;;1.50;80.90;;;;;;4975726;28;20038;-75
2023/12/03 10:09:01;;;;;;;35.85;19.23;;;1.40;79.80;;;;;;4982137;28;20212;-75
2023/12/03 10:11:36;;;;;;;9.55;7.18;;;1.50;79.40;;;;;;4994964;28;20028;-75
2023/12/03 10:14:04;;;;;;;15.63;10.55;;;1.50;80.10;;;;;;4977724;28;20129;-75
2023/12/03 10:16:30;;;;;;;3.92;2.97;;;1.50;81.00;;;;;;4977364;28;20027;-75
2023/12/03 10:18:56;;;;;;;2.42;1.40;;;1.50;78.80;;;;;;4977665;28;20121;-76
2023/12/03 10:21:22;;;;;;;4.07;2.65;;;1.50;81.00;;;;;;4995023;28;20412;-75
2023/12/03 10:24:04;;;;;;;5.93;3.70;;;1.70;81.60;;;;;;4977526;28;20098;-74
2023/12/03 10:26:30;;;;;;;6.80;4.60;;;1.80;81.40;;;;;;4994817;28;20022;-75
2023/12/03 10:28:56;;;;;;;7.70;4.97;;;1.80;77.50;;;;;;4995025;28;20028;-74
2023/12/03 10:31:21;;;;;;;5.68;3.33;;;1.90;76.80;;;;;;4977313;28;20463;-74
2023/12/03 10:33:48;;;;;;;23.63;11.25;;;2.10;76.90;;;;;;4994807;28;20029;-74
2023/12/03 10:36:13;;;;;;;4.88;3.03;;;2.20;74.90;;;;;;4976924;28;20057;-74
2023/12/03 10:38:43;;;;;;;4.65;2.33;;;2.20;74.00;;;;;;4994784;28;20023;-74
2023/12/03 10:41:13;;;;;;;2.67;1.58;;;2.20;77.50;;;;;;4995833;28;20048;-74
2023/12/03 10:43:40;;;;;;;2.17;1.40;;;2.10;75.10;;;;;;4977108;28;20408;-73
2023/12/03 10:46:13;;;;;;;2.38;1.58;;;2.20;76.20;;;;;;4976861;28;20133;-74
2023/12/03 10:48:39;;;;;;;2.13;1.38;;;2.20;76.10;;;;;;4976397;28;20030;-74
2023/12/03 10:51:09;;;;;;;1.80;1.52;;;2.30;77.70;;;;;;4994380;28;20452;-74
2023/12/03 10:53:36;;;;;;;2.72;1.38;;;2.30;73.00;;;;;;4994488;28;20388;-74
2023/12/03 10:56:03;;;;;;;2.08;1.38;;;2.30;73.40;;;;;;4979865;28;20097;-78
2023/12/03 10:58:39;;;;;;;3.53;1.80;;;2.40;74.80;;;;;;4994559;28;20026;-74
2023/12/03 11:01:18;;;;;;;2.38;2.03;;;2.30;74.90;;;;;;4994325;28;20026;-74
2023/12/03 11:03:51;;;;;;;3.20;1.90;;;2.40;77.20;;;;;;4995244;28;20438;-74
2023/12/03 11:06:17;;;;;;;2.83;1.60;;;2.50;77.00;;;;;;4997454;28;20025;-74
2023/12/03 11:08:46;;;;;;;2.97;2.05;;;2.60;75.10;;;;;;5004492;28;20153;-74
2023/12/03 11:11:13;;;;;;;3.08;2.10;;;2.40;72.40;;;;;;4986803;28;20065;-74
2023/12/03 11:13:41;;;;;;;3.03;1.25;;;2.40;74.20;;;;;;4999149;28;20022;-74
2023/12/03 11:16:09;;;;;;;1.42;1.33;;;2.50;76.40;;;;;;4993682;28;20026;-74
2023/12/03 11:18:39;;;;;;;3.05;1.35;;;2.70;76.80;;;;;;4976480;28;20030;-74
2023/12/03 11:21:40;;;;;;;4.03;2.10;;;2.70;76.50;;;;;;4976431;28;20031;-73
2023/12/03 11:24:26;;;;;;;1.67;1.58;;;2.70;74.80;;;;;;4954039;28;20436;-73
2023/12/03 11:26:51;;;;;;;2.40;1.30;;;2.70;75.80;;;;;;4990363;28;20373;-74
2023/12/03 11:29:17;;;;;;;5.57;3.00;;;2.60;74.70;;;;;;4975787;28;20037;-74
2023/12/03 11:31:43;;;;;;;1.52;1.33;;;3.00;75.10;;;;;;4993366;28;20037;-74
2023/12/03 11:34:10;;;;;;;1.70;1.38;;;2.70;75.30;;;;;;4976173;28;20030;-74
2023/12/03 11:36:42;;;;;;;5.50;2.75;;;2.80;76.40;;;;;;4975748;28;20052;-74
2023/12/03 11:39:08;;;;;;;11.25;5.63;;;2.80;76.20;;;;;;4993542;28;20030;-74
2023/12/03 11:41:42;;;;;;;2.22;1.85;;;3.00;75.30;;;;;;4993359;28;20454;-74
2023/12/03 11:44:18;;;;;;;4.65;2.08;;;3.10;73.90;;;;;;4993470;28;20030;-74
2023/12/03 11:47:08;;;;;;;2.22;1.70;;;3.00;73.30;;;;;;4993098;28;20029;-74
2023/12/03 11:49:38;;;;;;;2.95;1.50;;;3.10;73.30;;;;;;4975496;28;20026;-74
2023/12/03 11:52:04;;;;;;;3.38;1.75;;;3.10;72.40;;;;;;4993373;28;20018;-74
2023/12/03 11:54:51;;;;;;;1.92;1.50;;;3.20;72.70;;;;;;4975843;28;20030;-74
2023/12/03 11:57:17;;;;;;;3.08;1.83;;;3.20;71.90;;;;;;4992976;28;20026;-74
2023/12/03 11:59:45;;;;;;;1.67;1.30;;;3.20;71.90;;;;;;4992300;28;20117;-73
2023/12/03 12:02:13;;;;;;;4.93;2.58;;;3.30;71.20;;;;;;4975809;28;20034;-74
2023/12/03 12:04:39;;;;;;;2.75;1.77;;;3.20;71.30;;;;;;4993072;28;20511;-74
2023/12/03 12:07:17;;;;;;;10.27;5.53;;;3.40;71.60;;;;;;4975320;28;20031;-74
2023/12/03 12:09:46;;;;;;;2.35;2.03;;;3.40;74.80;;;;;;4992864;28;20481;-74
2023/12/03 12:12:13;;;;;;;3.63;2.83;;;3.50;76.70;;;;;;4992565;28;20075;-74
2023/12/03 12:14:39;;;;;;;3.22;1.80;;;3.50;74.40;;;;;;4993029;28;20142;-74
2023/12/03 12:17:08;;;;;;;3.35;2.20;;;3.30;73.80;;;;;;4975229;28;20142;-74
2023/12/03 12:19:34;;;;;;;3.03;1.40;;;3.40;72.10;;;;;;4975084;28;20072;-73
2023/12/03 12:21:59;;;;;;;3.92;2.70;;;3.40;69.60;;;;;;4975561;28;20030;-74
2023/12/03 12:24:25;;;;;;;11.70;5.68;;;3.40;70.50;;;;;;4974688;28;20030;-73
2023/12/03 12:26:51;;;;;;;7.25;3.90;;;3.40;71.30;;;;;;5004445;28;20034;-74
2023/12/03 12:29:20;;;;;;;3.20;2.40;;;3.40;71.90;;;;;;4987804;28;20034;-74
2023/12/03 12:31:46;;;;;;;3.83;1.58;;;3.30;70.30;;;;;;4992962;28;20030;-74
2023/12/03 12:34:13;;;;;;;3.17;1.30;;;3.40;71.80;;;;;;4975435;28;20033;-73
2023/12/03 12:36:43;;;;;;;2.72;1.88;;;3.50;70.70;;;;;;4992284;28;20489;-74
2023/12/03 12:39:25;;;;;;;3.33;1.58;;;3.60;71.40;;;;;;4975379;28;20492;-74
2023/12/03 12:41:51;;;;;;;3.50;1.42;;;3.60;70.90;;;;;;4992520;28;20042;-73
2023/12/03 12:44:18;;;;;;;1.95;1.52;;;3.60;72.70;;;;;;4992523;28;20128;-73
2023/12/03 12:46:58;;;;;;;3.28;2.83;;;3.50;74.60;;;;;;4974743;28;20522;-74